PWSweather.com
Personal Weather Stations
Station Observations
KTXPLANO70
Kemper Estates, Plano, TX

Kemper EstatesPlano, TX

Lat: 33.0674, Lon: -96.7659

Elevation: 737

Station Type: Davis Vantage Pro2

http://www.dallasdawg.com

Latest ConditionsUpdated 6:50:03 PM CDT Monday, Oct 21, 2019
Currently Today's Max Today's Min Today's Average
Temperature 63.7°F17.6°C 73.1°F22.8°C 54.7°F12.6°C 64.7°F18.2°C
Dew Point 39.6°F4.2°C 70.6°F21.4°C 36.6°F2.6°C 45.5°F7.5°C
Winds Calm Calm 16.1 mph -25.9 kmh - - 2.8 mph 4.5 kmh
Wind Gusts -- 28.8 mph46.3 kmh - -
Humidity 41% 95% 28% 54%
Pressure 29.94 in1013.9 mb 29.94 in1013.9 mb 29.49 in998.6 mb -
Precipitation - 1.15 in29.2 mm - -
Hour Temp Dew Point Humidity Winds Wind Gusts Pressure Precip Precip Rate Daily Precip Total
06:50 PM 63.7°F17.6°C 39.6°F4.2°C 41% Calm Calm -- 29.94 in1013.9 mb - 0.00 in0.0 mm 1.15 in29.2 mm
06:45 PM 64.1°F17.8°C 39.3°F4.1°C 40% Calm Calm -- 29.94 in1013.9 mb - 0.00 in0.0 mm 1.15 in29.2 mm
06:40 PM 64.7°F18.2°C 39.8°F4.3°C 40% Calm Calm -- 29.94 in1013.9 mb - 0.00 in0.0 mm 1.15 in29.2 mm
06:35 PM 65.4°F18.6°C 40.4°F4.7°C 40% Calm Calm -- 29.94 in1013.9 mb - 0.00 in0.0 mm 1.15 in29.2 mm
06:30 PM 66.0°F18.9°C 39.7°F4.3°C 38% Calm Calm -- 29.93 in1013.5 mb - 0.00 in0.0 mm 1.15 in29.2 mm
06:25 PM 66.7°F19.3°C 39.6°F4.2°C 37% Calm Calm 2.3 mph3.7 kmh 29.93 in1013.5 mb - 0.00 in0.0 mm 1.15 in29.2 mm
06:20 PM 67.0°F19.4°C 39.1°F3.9°C 36% Calm Calm -- 29.93 in1013.5 mb - 0.00 in0.0 mm 1.15 in29.2 mm
06:15 PM 67.3°F19.6°C 39.4°F4.1°C 36% Calm Calm 1.2 mph1.9 kmh 29.93 in1013.5 mb - 0.00 in0.0 mm 1.15 in29.2 mm
06:10 PM 68.0°F20.0°C 38.6°F3.7°C 34% Calm Calm 2.3 mph3.7 kmh 29.93 in1013.5 mb - 0.00 in0.0 mm 1.15 in29.2 mm
06:00 PM 68.8°F20.4°C 37.7°F3.2°C 32% 1.2 mph NW1.9 kmh NW 3.5 mph5.6 kmh 29.92 in1013.2 mb - 0.00 in0.0 mm 1.15 in29.2 mm
05:55 PM 68.9°F20.5°C 37.8°F3.2°C 32% Calm Calm 1.2 mph1.9 kmh 29.92 in1013.2 mb - 0.00 in0.0 mm 1.15 in29.2 mm
05:50 PM 68.9°F20.5°C 37.8°F3.2°C 32% 1.2 mph NW1.9 kmh NW 3.5 mph5.6 kmh 29.92 in1013.2 mb - 0.00 in0.0 mm 1.15 in29.2 mm
05:45 PM 69.0°F20.6°C 37.9°F3.3°C 32% Calm Calm 2.3 mph3.7 kmh 29.92 in1013.2 mb - 0.00 in0.0 mm 1.15 in29.2 mm
05:40 PM 69.4°F20.8°C 39.8°F4.3°C 34% Calm Calm 2.3 mph3.7 kmh 29.92 in1013.2 mb - 0.00 in0.0 mm 1.15 in29.2 mm
05:35 PM 69.7°F20.9°C 39.3°F4.1°C 33% 1.2 mph SW1.9 kmh SW 2.3 mph3.7 kmh 29.92 in1013.2 mb - 0.00 in0.0 mm 1.15 in29.2 mm
05:30 PM 69.8°F21.0°C 38.6°F3.7°C 32% 1.2 mph SW1.9 kmh SW 3.5 mph5.6 kmh 29.92 in1013.2 mb - 0.00 in0.0 mm 1.15 in29.2 mm
05:25 PM 69.7°F20.9°C 38.5°F3.6°C 32% 2.3 mph SW3.7 kmh SW 3.5 mph5.6 kmh 29.92 in1013.2 mb - 0.00 in0.0 mm 1.15 in29.2 mm
05:20 PM 69.8°F21.0°C 37.0°F2.8°C 30% Calm Calm 1.2 mph1.9 kmh 29.92 in1013.2 mb - 0.00 in0.0 mm 1.15 in29.2 mm
05:15 PM 70.5°F21.4°C 37.6°F3.1°C 30% 1.2 mph SW1.9 kmh SW 2.3 mph3.7 kmh 29.92 in1013.2 mb - 0.00 in0.0 mm 1.15 in29.2 mm
05:10 PM 70.7°F21.5°C 38.5°F3.6°C 31% 2.3 mph SW3.7 kmh SW 4.6 mph7.4 kmh 29.91 in1012.9 mb - 0.00 in0.0 mm 1.15 in29.2 mm
05:00 PM 70.5°F21.4°C 38.4°F3.6°C 31% 1.2 mph WNW1.9 kmh WNW 2.3 mph3.7 kmh 29.91 in1012.9 mb - 0.00 in0.0 mm 1.15 in29.2 mm
04:55 PM 70.9°F21.6°C 37.9°F3.3°C 30% 2.3 mph NW3.7 kmh NW 3.5 mph5.6 kmh 29.91 in1012.9 mb - 0.00 in0.0 mm 1.15 in29.2 mm
04:50 PM 71.1°F21.7°C 38.1°F3.4°C 30% 2.3 mph SW3.7 kmh SW 2.3 mph3.7 kmh 29.91 in1012.9 mb - 0.00 in0.0 mm 1.15 in29.2 mm
04:45 PM 71.0°F21.7°C 38.0°F3.3°C 30% 2.3 mph WSW3.7 kmh WSW 4.6 mph7.4 kmh 29.91 in1012.9 mb - 0.00 in0.0 mm 1.15 in29.2 mm
04:40 PM 71.5°F21.9°C 36.6°F2.6°C 28% 2.3 mph N3.7 kmh N 3.5 mph5.6 kmh 29.91 in1012.9 mb - 0.00 in0.0 mm 1.15 in29.2 mm
04:35 PM 71.4°F21.9°C 38.4°F3.6°C 30% 1.2 mph WNW1.9 kmh WNW 3.5 mph5.6 kmh 29.90 in1012.5 mb - 0.00 in0.0 mm 1.15 in29.2 mm
04:30 PM 71.2°F21.8°C 38.2°F3.4°C 30% 3.5 mph NW5.6 kmh NW 5.8 mph9.3 kmh 29.90 in1012.5 mb - 0.00 in0.0 mm 1.15 in29.2 mm
04:25 PM 71.3°F21.8°C 37.4°F3.0°C 29% 4.6 mph NW7.4 kmh NW 5.8 mph9.3 kmh 29.90 in1012.5 mb - 0.00 in0.0 mm 1.15 in29.2 mm
04:20 PM 71.5°F21.9°C 38.4°F3.6°C 30% 2.3 mph WSW3.7 kmh WSW 3.5 mph5.6 kmh 29.90 in1012.5 mb - 0.00 in0.0 mm 1.15 in29.2 mm
04:15 PM 71.3°F21.8°C 38.3°F3.5°C 30% 3.5 mph NW5.6 kmh NW 8.1 mph13.0 kmh 29.90 in1012.5 mb - 0.00 in0.0 mm 1.15 in29.2 mm
04:10 PM 71.9°F22.2°C 37.9°F3.3°C 29% 3.5 mph W5.6 kmh W 4.6 mph7.4 kmh 29.90 in1012.5 mb - 0.00 in0.0 mm 1.15 in29.2 mm
04:00 PM 71.5°F21.9°C 37.5°F3.1°C 29% 1.2 mph W1.9 kmh W 2.3 mph3.7 kmh 29.90 in1012.5 mb - 0.00 in0.0 mm 1.15 in29.2 mm
03:55 PM 71.6°F22.0°C 38.5°F3.6°C 30% 2.3 mph NW3.7 kmh NW 9.2 mph14.8 kmh 29.89 in1012.2 mb - 0.00 in0.0 mm 1.15 in29.2 mm
03:50 PM 71.8°F22.1°C 38.7°F3.7°C 30% 1.2 mph NNW1.9 kmh NNW 5.8 mph9.3 kmh 29.89 in1012.2 mb - 0.00 in0.0 mm 1.15 in29.2 mm
03:45 PM 72.1°F22.3°C 38.0°F3.3°C 29% 2.3 mph NNW3.7 kmh NNW 4.6 mph7.4 kmh 29.89 in1012.2 mb - 0.00 in0.0 mm 1.15 in29.2 mm
03:40 PM 72.7°F22.6°C 41.1°F5.1°C 32% 2.3 mph N3.7 kmh N 4.6 mph7.4 kmh 29.89 in1012.2 mb - 0.00 in0.0 mm 1.15 in29.2 mm
03:35 PM 72.1°F22.3°C 39.7°F4.3°C 31% 2.3 mph SW3.7 kmh SW 3.5 mph5.6 kmh 29.90 in1012.5 mb - 0.00 in0.0 mm 1.15 in29.2 mm
03:30 PM 71.6°F22.0°C 39.4°F4.1°C 31% 1.2 mph SW1.9 kmh SW 3.5 mph5.6 kmh 29.90 in1012.5 mb - 0.00 in0.0 mm 1.15 in29.2 mm
03:25 PM 71.9°F22.2°C 39.6°F4.2°C 31% 2.3 mph W3.7 kmh W 4.6 mph7.4 kmh 29.90 in1012.5 mb - 0.00 in0.0 mm 1.15 in29.2 mm
03:20 PM 72.1°F22.3°C 39.8°F4.3°C 31% 2.3 mph WSW3.7 kmh WSW 3.5 mph5.6 kmh 29.90 in1012.5 mb - 0.00 in0.0 mm 1.15 in29.2 mm
03:15 PM 71.5°F21.9°C 39.3°F4.1°C 31% 2.3 mph NW3.7 kmh NW 3.5 mph5.6 kmh 29.90 in1012.5 mb - 0.00 in0.0 mm 1.15 in29.2 mm
03:10 PM 71.7°F22.1°C 40.2°F4.6°C 32% 2.3 mph WSW3.7 kmh WSW 3.5 mph5.6 kmh 29.90 in1012.5 mb - 0.00 in0.0 mm 1.15 in29.2 mm
03:00 PM 71.6°F22.0°C 40.9°F4.9°C 33% 3.5 mph WNW5.6 kmh WNW 5.8 mph9.3 kmh 29.91 in1012.9 mb - 0.00 in0.0 mm 1.15 in29.2 mm
02:55 PM 71.5°F21.9°C 38.4°F3.6°C 30% 4.6 mph NW7.4 kmh NW 5.8 mph9.3 kmh 29.91 in1012.9 mb - 0.00 in0.0 mm 1.15 in29.2 mm
02:50 PM 71.0°F21.7°C 39.7°F4.3°C 32% 1.2 mph W1.9 kmh W 3.5 mph5.6 kmh 29.91 in1012.9 mb - 0.00 in0.0 mm 1.15 in29.2 mm
02:45 PM 71.5°F21.9°C 40.0°F4.4°C 32% 2.3 mph NNW3.7 kmh NNW 4.6 mph7.4 kmh 29.91 in1012.9 mb - 0.00 in0.0 mm 1.15 in29.2 mm
02:40 PM 71.8°F22.1°C 41.2°F5.1°C 33% 3.5 mph WNW5.6 kmh WNW 9.2 mph14.8 kmh 29.91 in1012.9 mb - 0.00 in0.0 mm 1.15 in29.2 mm
02:35 PM 71.0°F21.7°C 39.6°F4.2°C 32% 3.5 mph WSW5.6 kmh WSW 5.8 mph9.3 kmh 29.91 in1012.9 mb - 0.00 in0.0 mm 1.15 in29.2 mm
02:30 PM 70.8°F21.6°C 40.3°F4.6°C 33% 2.3 mph NW3.7 kmh NW 6.9 mph11.1 kmh 29.91 in1012.9 mb - 0.00 in0.0 mm 1.15 in29.2 mm
02:25 PM 70.9°F21.6°C 40.3°F4.6°C 33% 2.3 mph NW3.7 kmh NW 3.5 mph5.6 kmh 29.91 in1012.9 mb - 0.00 in0.0 mm 1.15 in29.2 mm
02:20 PM 70.5°F21.4°C 39.2°F4.0°C 32% 5.8 mph NNW9.3 kmh NNW 6.9 mph11.1 kmh 29.91 in1012.9 mb - 0.00 in0.0 mm 1.15 in29.2 mm
02:15 PM 70.6°F21.4°C 39.3°F4.1°C 32% 2.3 mph SW3.7 kmh SW 3.5 mph5.6 kmh 29.91 in1012.9 mb - 0.00 in0.0 mm 1.15 in29.2 mm
02:10 PM 71.4°F21.9°C 40.0°F4.4°C 32% 3.5 mph NW5.6 kmh NW 4.6 mph7.4 kmh 29.91 in1012.9 mb - 0.00 in0.0 mm 1.15 in29.2 mm
02:00 PM 70.4°F21.3°C 39.1°F3.9°C 32% 1.2 mph W1.9 kmh W 4.6 mph7.4 kmh 29.91 in1012.9 mb - 0.00 in0.0 mm 1.15 in29.2 mm
01:55 PM 71.2°F21.8°C 41.3°F5.2°C 34% 3.5 mph W5.6 kmh W 9.2 mph14.8 kmh 29.91 in1012.9 mb - 0.00 in0.0 mm 1.15 in29.2 mm
01:50 PM 70.8°F21.6°C 41.0°F5.0°C 34% 3.5 mph NW5.6 kmh NW 5.8 mph9.3 kmh 29.91 in1012.9 mb - 0.00 in0.0 mm 1.15 in29.2 mm
01:45 PM 70.3°F21.3°C 41.4°F5.2°C 35% 2.3 mph SW3.7 kmh SW 4.6 mph7.4 kmh 29.92 in1013.2 mb - 0.00 in0.0 mm 1.15 in29.2 mm
01:40 PM 70.1°F21.2°C 40.4°F4.7°C 34% 2.3 mph W3.7 kmh W 3.5 mph5.6 kmh 29.92 in1013.2 mb - 0.00 in0.0 mm 1.15 in29.2 mm
01:35 PM 70.1°F21.2°C 41.2°F5.1°C 35% 3.5 mph WNW5.6 kmh WNW 5.8 mph9.3 kmh 29.92 in1013.2 mb - 0.00 in0.0 mm 1.15 in29.2 mm
01:30 PM 69.8°F21.0°C 40.9°F4.9°C 35% 4.6 mph WNW7.4 kmh WNW 12.7 mph20.4 kmh 29.92 in1013.2 mb - 0.00 in0.0 mm 1.15 in29.2 mm
01:25 PM 69.8°F21.0°C 40.9°F4.9°C 35% 4.6 mph NW7.4 kmh NW 9.2 mph14.8 kmh 29.92 in1013.2 mb - 0.00 in0.0 mm 1.15 in29.2 mm
01:20 PM 69.5°F20.8°C 41.4°F5.2°C 36% 1.2 mph W1.9 kmh W 1.2 mph1.9 kmh 29.93 in1013.5 mb - 0.00 in0.0 mm 1.15 in29.2 mm
01:15 PM 68.5°F20.3°C 41.2°F5.1°C 37% 1.2 mph NW1.9 kmh NW 3.5 mph5.6 kmh 29.93 in1013.5 mb - 0.00 in0.0 mm 1.15 in29.2 mm
01:10 PM 68.5°F20.3°C 40.5°F4.7°C 36% 2.3 mph NW3.7 kmh NW 3.5 mph5.6 kmh 29.93 in1013.5 mb - 0.00 in0.0 mm 1.15 in29.2 mm
01:00 PM 68.7°F20.4°C 40.0°F4.4°C 35% 4.6 mph NNW7.4 kmh NNW 6.9 mph11.1 kmh 29.94 in1013.9 mb - 0.00 in0.0 mm 1.15 in29.2 mm
12:55 PM 68.4°F20.2°C 39.7°F4.3°C 35% 2.3 mph WSW3.7 kmh WSW 3.5 mph5.6 kmh 29.94 in1013.9 mb - 0.00 in0.0 mm 1.15 in29.2 mm
12:50 PM 68.2°F20.1°C 40.9°F4.9°C 37% 2.3 mph WNW3.7 kmh WNW 4.6 mph7.4 kmh 29.94 in1013.9 mb - 0.00 in0.0 mm 1.15 in29.2 mm
12:45 PM 68.1°F20.1°C 39.4°F4.1°C 35% 3.5 mph NW5.6 kmh NW 5.8 mph9.3 kmh 29.94 in1013.9 mb - 0.00 in0.0 mm 1.15 in29.2 mm
12:40 PM 68.5°F20.3°C 41.2°F5.1°C 37% 3.5 mph NW5.6 kmh NW 9.2 mph14.8 kmh 29.93 in1013.5 mb - 0.00 in0.0 mm 1.15 in29.2 mm
12:35 PM 68.5°F20.3°C 41.2°F5.1°C 37% 1.2 mph WSW1.9 kmh WSW 2.3 mph3.7 kmh 29.93 in1013.5 mb - 0.00 in0.0 mm 1.15 in29.2 mm
12:30 PM 68.2°F20.1°C 40.2°F4.6°C 36% 2.3 mph WSW3.7 kmh WSW 4.6 mph7.4 kmh 29.93 in1013.5 mb - 0.00 in0.0 mm 1.15 in29.2 mm
12:25 PM 68.0°F20.0°C 40.1°F4.5°C 36% 5.8 mph WNW9.3 kmh WNW 6.9 mph11.1 kmh 29.93 in1013.5 mb - 0.00 in0.0 mm 1.15 in29.2 mm
12:20 PM 67.6°F19.8°C 38.9°F3.8°C 35% 4.6 mph NW7.4 kmh NW 9.2 mph14.8 kmh 29.93 in1013.5 mb - 0.00 in0.0 mm 1.15 in29.2 mm
12:15 PM 67.5°F19.7°C 39.6°F4.2°C 36% 3.5 mph W5.6 kmh W 8.1 mph13.0 kmh 29.93 in1013.5 mb - 0.00 in0.0 mm 1.15 in29.2 mm
12:10 PM 67.7°F19.8°C 39.8°F4.3°C 36% 5.8 mph NW9.3 kmh NW 6.9 mph11.1 kmh 29.93 in1013.5 mb - 0.00 in0.0 mm 1.15 in29.2 mm
12:00 PM 67.7°F19.8°C 40.5°F4.7°C 37% 3.5 mph NW5.6 kmh NW 8.1 mph13.0 kmh 29.93 in1013.5 mb - 0.00 in0.0 mm 1.15 in29.2 mm
11:55 AM 67.0°F19.4°C 41.2°F5.1°C 39% 2.3 mph SW3.7 kmh SW 3.5 mph5.6 kmh 29.93 in1013.5 mb - 0.00 in0.0 mm 1.15 in29.2 mm
11:50 AM 66.7°F19.3°C 38.9°F3.8°C 36% 4.6 mph NW7.4 kmh NW 8.1 mph13.0 kmh 29.93 in1013.5 mb - 0.00 in0.0 mm 1.15 in29.2 mm
11:45 AM 66.7°F19.3°C 38.9°F3.8°C 36% 4.6 mph NW7.4 kmh NW 10.4 mph16.7 kmh 29.92 in1013.2 mb - 0.00 in0.0 mm 1.15 in29.2 mm
11:40 AM 66.5°F19.2°C 38.0°F3.3°C 35% 4.6 mph WNW7.4 kmh WNW 10.4 mph16.7 kmh 29.92 in1013.2 mb - 0.00 in0.0 mm 1.15 in29.2 mm
11:35 AM 66.8°F19.3°C 39.0°F3.9°C 36% 3.5 mph NW5.6 kmh NW 5.8 mph9.3 kmh 29.93 in1013.5 mb - 0.00 in0.0 mm 1.15 in29.2 mm
11:30 AM 66.9°F19.4°C 39.7°F4.3°C 37% 3.5 mph WNW5.6 kmh WNW 5.8 mph9.3 kmh 29.92 in1013.2 mb - 0.00 in0.0 mm 1.15 in29.2 mm
11:25 AM 66.5°F19.2°C 38.7°F3.7°C 36% 5.8 mph NW9.3 kmh NW 8.1 mph13.0 kmh 29.92 in1013.2 mb - 0.00 in0.0 mm 1.15 in29.2 mm
11:20 AM 66.2°F19.0°C 40.5°F4.7°C 39% 4.6 mph NW7.4 kmh NW 11.5 mph18.5 kmh 29.92 in1013.2 mb - 0.00 in0.0 mm 1.15 in29.2 mm
11:15 AM 65.6°F18.7°C 38.6°F3.7°C 37% 3.5 mph N5.6 kmh N 5.8 mph9.3 kmh 29.92 in1013.2 mb - 0.00 in0.0 mm 1.15 in29.2 mm
11:10 AM 65.5°F18.6°C 37.1°F2.8°C 35% 4.6 mph W7.4 kmh W 6.9 mph11.1 kmh 29.93 in1013.5 mb - 0.00 in0.0 mm 1.15 in29.2 mm
11:00 AM 65.0°F18.3°C 37.4°F3.0°C 36% 6.9 mph NW11.1 kmh NW 15.0 mph24.1 kmh 29.92 in1013.2 mb - 0.00 in0.0 mm 1.15 in29.2 mm
10:55 AM 65.3°F18.5°C 39.7°F4.3°C 39% 3.5 mph WNW5.6 kmh WNW 8.1 mph13.0 kmh 29.92 in1013.2 mb - 0.00 in0.0 mm 1.15 in29.2 mm
10:50 AM 64.8°F18.2°C 38.6°F3.7°C 38% 4.6 mph WNW7.4 kmh WNW 9.2 mph14.8 kmh 29.92 in1013.2 mb - 0.00 in0.0 mm 1.15 in29.2 mm
10:45 AM 64.6°F18.1°C 39.7°F4.3°C 40% 4.6 mph NW7.4 kmh NW 9.2 mph14.8 kmh 29.91 in1012.9 mb - 0.00 in0.0 mm 1.15 in29.2 mm
10:40 AM 64.3°F17.9°C 38.8°F3.8°C 39% 4.6 mph W7.4 kmh W 10.4 mph16.7 kmh 29.91 in1012.9 mb - 0.00 in0.0 mm 1.15 in29.2 mm
10:35 AM 64.1°F17.8°C 39.3°F4.1°C 40% 2.3 mph NW3.7 kmh NW 10.4 mph16.7 kmh 29.91 in1012.9 mb - 0.00 in0.0 mm 1.15 in29.2 mm
10:30 AM 63.8°F17.7°C 40.3°F4.6°C 42% 4.6 mph NW7.4 kmh NW 10.4 mph16.7 kmh 29.92 in1013.2 mb - 0.00 in0.0 mm 1.15 in29.2 mm
10:25 AM 63.4°F17.4°C 42.3°F5.7°C 46% 2.3 mph NW3.7 kmh NW 4.6 mph7.4 kmh 29.91 in1012.9 mb - 0.00 in0.0 mm 1.15 in29.2 mm
10:20 AM 63.2°F17.3°C 41.5°F5.3°C 45% 2.3 mph NW3.7 kmh NW 5.8 mph9.3 kmh 29.92 in1013.2 mb - 0.00 in0.0 mm 1.15 in29.2 mm
10:15 AM 62.8°F17.1°C 41.1°F5.1°C 45% 2.3 mph NW3.7 kmh NW 2.3 mph3.7 kmh 29.91 in1012.9 mb - 0.00 in0.0 mm 1.15 in29.2 mm
10:10 AM 62.6°F17.0°C 40.4°F4.7°C 44% 4.6 mph NW7.4 kmh NW 11.5 mph18.5 kmh 29.91 in1012.9 mb - 0.00 in0.0 mm 1.15 in29.2 mm
10:00 AM 62.5°F16.9°C 42.0°F5.6°C 47% 2.3 mph W3.7 kmh W 6.9 mph11.1 kmh 29.91 in1012.9 mb - 0.00 in0.0 mm 1.15 in29.2 mm
09:55 AM 62.2°F16.8°C 42.8°F6.0°C 49% 3.5 mph WNW5.6 kmh WNW 4.6 mph7.4 kmh 29.91 in1012.9 mb - 0.00 in0.0 mm 1.15 in29.2 mm
09:50 AM 62.0°F16.7°C 42.1°F5.6°C 48% 3.5 mph WNW5.6 kmh WNW 6.9 mph11.1 kmh 29.91 in1012.9 mb - 0.00 in0.0 mm 1.15 in29.2 mm
09:45 AM 62.0°F16.7°C 42.6°F5.9°C 49% 2.3 mph WNW3.7 kmh WNW 10.4 mph16.7 kmh 29.91 in1012.9 mb - 0.00 in0.0 mm 1.15 in29.2 mm
09:40 AM 62.0°F16.7°C 43.1°F6.2°C 50% 3.5 mph WNW5.6 kmh WNW 8.1 mph13.0 kmh 29.90 in1012.5 mb - 0.00 in0.0 mm 1.15 in29.2 mm
09:35 AM 61.5°F16.4°C 42.6°F5.9°C 50% 2.3 mph W3.7 kmh W 2.3 mph3.7 kmh 29.90 in1012.5 mb - 0.00 in0.0 mm 1.15 in29.2 mm
09:30 AM 61.2°F16.2°C 43.4°F6.3°C 52% 2.3 mph W3.7 kmh W 3.5 mph5.6 kmh 29.90 in1012.5 mb - 0.00 in0.0 mm 1.15 in29.2 mm
09:25 AM 60.7°F15.9°C 42.5°F5.8°C 51% 1.2 mph WNW1.9 kmh WNW 3.5 mph5.6 kmh 29.90 in1012.5 mb - 0.00 in0.0 mm 1.15 in29.2 mm
09:20 AM 60.4°F15.8°C 43.1°F6.2°C 53% 3.5 mph WNW5.6 kmh WNW 5.8 mph9.3 kmh 29.90 in1012.5 mb - 0.00 in0.0 mm 1.15 in29.2 mm
09:15 AM 60.1°F15.6°C 43.4°F6.3°C 54% 1.2 mph WNW1.9 kmh WNW 3.5 mph5.6 kmh 29.89 in1012.2 mb - 0.00 in0.0 mm 1.15 in29.2 mm
09:10 AM 59.7°F15.4°C 43.5°F6.4°C 55% 2.3 mph WSW3.7 kmh WSW 3.5 mph5.6 kmh 29.89 in1012.2 mb - 0.00 in0.0 mm 1.15 in29.2 mm
09:00 AM 59.2°F15.1°C 44.9°F7.2°C 59% 1.2 mph W1.9 kmh W 4.6 mph7.4 kmh 29.89 in1012.2 mb - 0.00 in0.0 mm 1.15 in29.2 mm
08:55 AM 58.7°F14.8°C 44.9°F7.2°C 60% Calm Calm 1.2 mph1.9 kmh 29.89 in1012.2 mb - 0.00 in0.0 mm 1.15 in29.2 mm
08:50 AM 58.1°F14.5°C 44.3°F6.8°C 60% 1.2 mph W1.9 kmh W 2.3 mph3.7 kmh 29.89 in1012.2 mb - 0.00 in0.0 mm 1.15 in29.2 mm
08:45 AM 57.5°F14.2°C 43.7°F6.5°C 60% Calm Calm 4.6 mph7.4 kmh 29.88 in1011.9 mb - 0.00 in0.0 mm 1.15 in29.2 mm
08:40 AM 57.3°F14.1°C 44.4°F6.9°C 62% Calm Calm -- 29.88 in1011.9 mb - 0.00 in0.0 mm 1.15 in29.2 mm
08:35 AM 57.0°F13.9°C 43.2°F6.2°C 60% Calm Calm 1.2 mph1.9 kmh 29.87 in1011.5 mb - 0.00 in0.0 mm 1.15 in29.2 mm
08:30 AM 56.4°F13.6°C 43.1°F6.2°C 61% Calm Calm 1.2 mph1.9 kmh 29.86 in1011.2 mb - 0.00 in0.0 mm 1.15 in29.2 mm
08:25 AM 56.0°F13.3°C 43.1°F6.2°C 62% Calm Calm -- 29.86 in1011.2 mb - 0.00 in0.0 mm 1.15 in29.2 mm
08:20 AM 55.5°F13.1°C 42.7°F5.9°C 62% Calm Calm 3.5 mph5.6 kmh 29.86 in1011.2 mb - 0.00 in0.0 mm 1.15 in29.2 mm
08:15 AM 55.1°F12.8°C 42.7°F5.9°C 63% Calm Calm 1.2 mph1.9 kmh 29.86 in1011.2 mb - 0.00 in0.0 mm 1.15 in29.2 mm
08:10 AM 54.7°F12.6°C 42.8°F6.0°C 64% 1.2 mph NW1.9 kmh NW 2.3 mph3.7 kmh 29.86 in1011.2 mb - 0.00 in0.0 mm 1.15 in29.2 mm
08:00 AM 54.9°F12.7°C 43.0°F6.1°C 64% Calm Calm -- 29.86 in1011.2 mb - 0.00 in0.0 mm 1.15 in29.2 mm
07:55 AM 55.2°F12.9°C 42.4°F5.8°C 62% Calm Calm 1.2 mph1.9 kmh 29.86 in1011.2 mb - 0.00 in0.0 mm 1.15 in29.2 mm
07:50 AM 55.4°F13.0°C 41.7°F5.4°C 60% Calm Calm 1.2 mph1.9 kmh 29.86 in1011.2 mb - 0.00 in0.0 mm 1.15 in29.2 mm
07:45 AM 55.4°F13.0°C 41.7°F5.4°C 60% 1.2 mph NW1.9 kmh NW 2.3 mph3.7 kmh 29.85 in1010.8 mb - 0.00 in0.0 mm 1.15 in29.2 mm
07:40 AM 55.5°F13.1°C 42.3°F5.7°C 61% Calm Calm 1.2 mph1.9 kmh 29.85 in1010.8 mb - 0.00 in0.0 mm 1.15 in29.2 mm
07:35 AM 55.6°F13.1°C 42.4°F5.8°C 61% 1.2 mph WNW1.9 kmh WNW 3.5 mph5.6 kmh 29.85 in1010.8 mb - 0.00 in0.0 mm 1.15 in29.2 mm
07:30 AM 55.9°F13.3°C 42.2°F5.7°C 60% Calm Calm 2.3 mph3.7 kmh 29.85 in1010.8 mb - 0.00 in0.0 mm 1.15 in29.2 mm
07:25 AM 55.9°F13.3°C 42.6°F5.9°C 61% Calm Calm 3.5 mph5.6 kmh 29.85 in1010.8 mb - 0.00 in0.0 mm 1.15 in29.2 mm
07:20 AM 55.9°F13.3°C 42.2°F5.7°C 60% Calm Calm 1.2 mph1.9 kmh 29.84 in1010.5 mb - 0.00 in0.0 mm 1.15 in29.2 mm
07:15 AM 56.0°F13.3°C 42.3°F5.7°C 60% 1.2 mph W1.9 kmh W 2.3 mph3.7 kmh 29.84 in1010.5 mb - 0.00 in0.0 mm 1.15 in29.2 mm
07:10 AM 56.2°F13.4°C 42.5°F5.8°C 60% 1.2 mph NW1.9 kmh NW 3.5 mph5.6 kmh 29.84 in1010.5 mb - 0.00 in0.0 mm 1.15 in29.2 mm
07:00 AM 56.6°F13.7°C 42.4°F5.8°C 59% 1.2 mph NW1.9 kmh NW 4.6 mph7.4 kmh 29.83 in1010.2 mb - 0.00 in0.0 mm 1.15 in29.2 mm
06:55 AM 56.9°F13.8°C 42.3°F5.7°C 58% 1.2 mph NW1.9 kmh NW 3.5 mph5.6 kmh 29.82 in1009.8 mb - 0.00 in0.0 mm 1.15 in29.2 mm
06:50 AM 56.8°F13.8°C 42.2°F5.7°C 58% 2.3 mph NW3.7 kmh NW 8.1 mph13.0 kmh 29.82 in1009.8 mb - 0.00 in0.0 mm 1.15 in29.2 mm
06:45 AM 57.1°F13.9°C 42.9°F6.1°C 59% 1.2 mph WNW1.9 kmh WNW 3.5 mph5.6 kmh 29.82 in1009.8 mb - 0.00 in0.0 mm 1.15 in29.2 mm
06:40 AM 57.2°F14.0°C 42.5°F5.8°C 58% 1.2 mph WNW1.9 kmh WNW 1.2 mph1.9 kmh 29.82 in1009.8 mb - 0.00 in0.0 mm 1.15 in29.2 mm
06:35 AM 57.5°F14.2°C 43.2°F6.2°C 59% 1.2 mph NW1.9 kmh NW 3.5 mph5.6 kmh 29.81 in1009.5 mb - 0.00 in0.0 mm 1.15 in29.2 mm
06:30 AM 57.8°F14.3°C 42.6°F5.9°C 57% 1.2 mph WNW1.9 kmh WNW 3.5 mph5.6 kmh 29.81 in1009.5 mb - 0.00 in0.0 mm 1.15 in29.2 mm
06:25 AM 57.9°F14.4°C 42.3°F5.7°C 56% 2.3 mph WNW3.7 kmh WNW 4.6 mph7.4 kmh 29.81 in1009.5 mb - 0.00 in0.0 mm 1.15 in29.2 mm
06:20 AM 58.3°F14.6°C 42.7°F5.9°C 56% 2.3 mph NW3.7 kmh NW 4.6 mph7.4 kmh 29.81 in1009.5 mb - 0.00 in0.0 mm 1.15 in29.2 mm
06:15 AM 58.4°F14.7°C 42.3°F5.7°C 55% 3.5 mph NW5.6 kmh NW 5.8 mph9.3 kmh 29.80 in1009.1 mb - 0.00 in0.0 mm 1.15 in29.2 mm
06:10 AM 58.6°F14.8°C 42.5°F5.8°C 55% 2.3 mph NW3.7 kmh NW 5.8 mph9.3 kmh 29.80 in1009.1 mb - 0.00 in0.0 mm 1.15 in29.2 mm
06:00 AM 59.1°F15.1°C 42.5°F5.8°C 54% 2.3 mph NW3.7 kmh NW 9.2 mph14.8 kmh 29.80 in1009.1 mb - 0.00 in0.0 mm 1.15 in29.2 mm
05:55 AM 59.4°F15.2°C 42.3°F5.7°C 53% 3.5 mph W5.6 kmh W 11.5 mph18.5 kmh 29.80 in1009.1 mb - 0.00 in0.0 mm 1.15 in29.2 mm
05:50 AM 59.6°F15.3°C 42.4°F5.8°C 53% 3.5 mph NW5.6 kmh NW 8.1 mph13.0 kmh 29.80 in1009.1 mb - 0.00 in0.0 mm 1.15 in29.2 mm
05:45 AM 59.7°F15.4°C 42.5°F5.8°C 53% 2.3 mph WNW3.7 kmh WNW 5.8 mph9.3 kmh 29.80 in1009.1 mb - 0.00 in0.0 mm 1.15 in29.2 mm
05:40 AM 59.9°F15.5°C 43.2°F6.2°C 54% 5.8 mph NW9.3 kmh NW 11.5 mph18.5 kmh 29.80 in1009.1 mb - 0.00 in0.0 mm 1.15 in29.2 mm
05:35 AM 60.1°F15.6°C 42.9°F6.1°C 53% 1.2 mph NW1.9 kmh NW 2.3 mph3.7 kmh 29.80 in1009.1 mb - 0.00 in0.0 mm 1.15 in29.2 mm
05:30 AM 60.2°F15.7°C 43.9°F6.6°C 55% 2.3 mph NW3.7 kmh NW 8.1 mph13.0 kmh 29.79 in1008.8 mb - 0.00 in0.0 mm 1.15 in29.2 mm
05:25 AM 60.2°F15.7°C 44.0°F6.7°C 55% 6.9 mph NW11.1 kmh NW 12.7 mph20.4 kmh 29.79 in1008.8 mb - 0.00 in0.0 mm 1.15 in29.2 mm
05:20 AM 60.3°F15.7°C 45.0°F7.2°C 57% 3.5 mph NW5.6 kmh NW 6.9 mph11.1 kmh 29.79 in1008.8 mb - 0.00 in0.0 mm 1.15 in29.2 mm
05:15 AM 60.3°F15.7°C 46.8°F8.2°C 61% 3.5 mph NW5.6 kmh NW 9.2 mph14.8 kmh 29.79 in1008.8 mb - 0.00 in0.0 mm 1.15 in29.2 mm
05:10 AM 60.3°F15.7°C 47.7°F8.7°C 63% 2.3 mph W3.7 kmh W 6.9 mph11.1 kmh 29.79 in1008.8 mb - 0.00 in0.0 mm 1.15 in29.2 mm
05:00 AM 60.8°F16.0°C 48.5°F9.2°C 64% 1.2 mph W1.9 kmh W 3.5 mph5.6 kmh 29.78 in1008.5 mb - 0.00 in0.0 mm 1.15 in29.2 mm
04:55 AM 60.9°F16.1°C 48.6°F9.2°C 64% 1.2 mph WNW1.9 kmh WNW 3.5 mph5.6 kmh 29.77 in1008.1 mb - 0.00 in0.0 mm 1.15 in29.2 mm
04:50 AM 60.6°F15.9°C 49.6°F9.8°C 67% 3.5 mph NW5.6 kmh NW 8.1 mph13.0 kmh 29.77 in1008.1 mb - 0.00 in0.0 mm 1.15 in29.2 mm
04:45 AM 60.6°F15.9°C 50.4°F10.2°C 69% 2.3 mph WNW3.7 kmh WNW 6.9 mph11.1 kmh 29.75 in1007.5 mb - 0.00 in0.0 mm 1.15 in29.2 mm
04:40 AM 60.6°F15.9°C 50.4°F10.2°C 69% 1.2 mph NNW1.9 kmh NNW 4.6 mph7.4 kmh 29.75 in1007.5 mb - 0.00 in0.0 mm 1.15 in29.2 mm
04:35 AM 60.6°F15.9°C 50.8°F10.4°C 70% 1.2 mph NW1.9 kmh NW 3.5 mph5.6 kmh 29.75 in1007.5 mb - 0.00 in0.0 mm 1.15 in29.2 mm
04:30 AM 60.5°F15.8°C 50.7°F10.4°C 70% 1.2 mph WSW1.9 kmh WSW 3.5 mph5.6 kmh 29.75 in1007.5 mb - 0.00 in0.0 mm 1.15 in29.2 mm
04:25 AM 60.5°F15.8°C 51.4°F10.8°C 72% 1.2 mph W1.9 kmh W 3.5 mph5.6 kmh 29.74 in1007.1 mb - 0.00 in0.0 mm 1.15 in29.2 mm
04:20 AM 60.4°F15.8°C 51.4°F10.8°C 72% 1.2 mph WNW1.9 kmh WNW 3.5 mph5.6 kmh 29.73 in1006.8 mb - 0.00 in0.0 mm 1.15 in29.2 mm
04:15 AM 60.4°F15.8°C 51.3°F10.7°C 72% Calm Calm 2.3 mph3.7 kmh 29.73 in1006.8 mb - 0.00 in0.0 mm 1.15 in29.2 mm
04:10 AM 60.2°F15.7°C 51.2°F10.7°C 72% Calm Calm 1.2 mph1.9 kmh 29.73 in1006.8 mb - 0.00 in0.0 mm 1.15 in29.2 mm
04:00 AM 60.5°F15.8°C 52.1°F11.2°C 74% 1.2 mph NNW1.9 kmh NNW 2.3 mph3.7 kmh 29.73 in1006.8 mb - 0.00 in0.0 mm 1.15 in29.2 mm
03:55 AM 61.0°F16.1°C 51.5°F10.8°C 71% Calm Calm 1.2 mph1.9 kmh 29.73 in1006.8 mb - 0.00 in0.0 mm 1.15 in29.2 mm
03:50 AM 60.7°F15.9°C 51.2°F10.7°C 71% 2.3 mph NW3.7 kmh NW 6.9 mph11.1 kmh 29.73 in1006.8 mb - 0.00 in0.0 mm 1.15 in29.2 mm
03:45 AM 60.4°F15.8°C 52.1°F11.2°C 74% 1.2 mph NW1.9 kmh NW 5.8 mph9.3 kmh 29.73 in1006.8 mb - 0.00 in0.0 mm 1.15 in29.2 mm
03:40 AM 60.5°F15.8°C 52.1°F11.2°C 74% Calm Calm -- 29.73 in1006.8 mb - 0.00 in0.0 mm 1.15 in29.2 mm
03:35 AM 60.3°F15.7°C 52.0°F11.1°C 74% 1.2 mph NW1.9 kmh NW 3.5 mph5.6 kmh 29.73 in1006.8 mb - 0.00 in0.0 mm 1.15 in29.2 mm
03:30 AM 59.8°F15.4°C 52.2°F11.2°C 76% Calm Calm 5.8 mph9.3 kmh 29.73 in1006.8 mb - 0.00 in0.0 mm 1.15 in29.2 mm
03:25 AM 60.0°F15.6°C 53.1°F11.7°C 78% Calm Calm 1.2 mph1.9 kmh 29.73 in1006.8 mb - 0.00 in0.0 mm 1.15 in29.2 mm
03:20 AM 60.3°F15.7°C 52.7°F11.5°C 76% Calm Calm 1.2 mph1.9 kmh 29.73 in1006.8 mb - 0.00 in0.0 mm 1.15 in29.2 mm
03:15 AM 60.8°F16.0°C 53.5°F11.9°C 77% Calm Calm -- 29.72 in1006.4 mb - 0.00 in0.0 mm 1.15 in29.2 mm
03:10 AM 61.1°F16.2°C 53.4°F11.9°C 76% 1.2 mph NW1.9 kmh NW 3.5 mph5.6 kmh 29.72 in1006.4 mb - 0.00 in0.0 mm 1.15 in29.2 mm
03:00 AM 62.0°F16.7°C 54.7°F12.6°C 77% 3.5 mph NW5.6 kmh NW 4.6 mph7.4 kmh 29.72 in1006.4 mb - 0.00 in0.0 mm 1.15 in29.2 mm
02:55 AM 62.4°F16.9°C 55.8°F13.2°C 79% 2.3 mph NW3.7 kmh NW 4.6 mph7.4 kmh 29.71 in1006.1 mb - 0.00 in0.0 mm 1.15 in29.2 mm
02:50 AM 62.8°F17.1°C 57.2°F14.0°C 82% 2.3 mph NNW3.7 kmh NNW 5.8 mph9.3 kmh 29.71 in1006.1 mb - 0.00 in0.0 mm 1.15 in29.2 mm
02:45 AM 62.9°F17.2°C 58.6°F14.8°C 86% 3.5 mph NW5.6 kmh NW 10.4 mph16.7 kmh 29.72 in1006.4 mb - 0.00 in0.0 mm 1.15 in29.2 mm
02:40 AM 62.9°F17.2°C 59.6°F15.3°C 89% 3.5 mph NNW5.6 kmh NNW 9.2 mph14.8 kmh 29.71 in1006.1 mb - 0.01 in0.3 mm 1.15 in29.2 mm
02:35 AM 63.1°F17.3°C 60.7°F15.9°C 92% 3.5 mph N5.6 kmh N 4.6 mph7.4 kmh 29.70 in1005.8 mb - 0.01 in0.3 mm 1.15 in29.2 mm
02:30 AM 63.6°F17.6°C 61.2°F16.2°C 92% 4.6 mph NNW7.4 kmh NNW 6.9 mph11.1 kmh 29.69 in1005.4 mb - 0.01 in0.3 mm 1.15 in29.2 mm
02:25 AM 64.7°F18.2°C 62.7°F17.1°C 93% 5.8 mph NW9.3 kmh NW 11.5 mph18.5 kmh 29.69 in1005.4 mb - 0.02 in0.5 mm 1.15 in29.2 mm
02:20 AM 65.4°F18.6°C 63.6°F17.6°C 94% 3.5 mph NW5.6 kmh NW 8.1 mph13.0 kmh 29.68 in1005.1 mb - 0.02 in0.5 mm 1.15 in29.2 mm
02:15 AM 65.9°F18.8°C 64.1°F17.8°C 94% 1.2 mph WNW1.9 kmh WNW 8.1 mph13.0 kmh 29.68 in1005.1 mb - 0.04 in1.0 mm 1.15 in29.2 mm
02:10 AM 66.0°F18.9°C 64.5°F18.1°C 95% 3.5 mph WSW5.6 kmh WSW 6.9 mph11.1 kmh 29.67 in1004.7 mb - 0.15 in3.8 mm 1.15 in29.2 mm
02:00 AM 65.7°F18.7°C 64.2°F17.9°C 95% 4.6 mph WSW7.4 kmh WSW 12.7 mph20.4 kmh 29.66 in1004.4 mb - 0.38 in9.7 mm 1.15 in29.2 mm
01:55 AM 65.6°F18.7°C 64.1°F17.8°C 95% 4.6 mph WSW7.4 kmh WSW 10.4 mph16.7 kmh 29.64 in1003.7 mb - 0.51 in13.0 mm 1.15 in29.2 mm
01:50 AM 65.7°F18.7°C 63.9°F17.7°C 94% 3.5 mph WSW5.6 kmh WSW 9.2 mph14.8 kmh 29.64 in1003.7 mb - 0.63 in16.0 mm 1.15 in29.2 mm
01:45 AM 65.8°F18.8°C 64.0°F17.8°C 94% 8.1 mph WSW13.0 kmh WSW 11.5 mph18.5 kmh 29.65 in1004.1 mb - 0.68 in17.3 mm 1.15 in29.2 mm
01:40 AM 65.9°F18.8°C 64.1°F17.8°C 94% 4.6 mph WSW7.4 kmh WSW 6.9 mph11.1 kmh 29.63 in1003.4 mb - 0.74 in18.8 mm 1.15 in29.2 mm
01:35 AM 66.1°F18.9°C 64.3°F17.9°C 94% 4.6 mph SW7.4 kmh SW 9.2 mph14.8 kmh 29.61 in1002.7 mb - 0.91 in23.1 mm 1.14 in29.0 mm
01:30 AM 66.2°F19.0°C 64.4°F18.0°C 94% 5.8 mph SW9.3 kmh SW 9.2 mph14.8 kmh 29.60 in1002.4 mb - 1.10 in27.9 mm 1.14 in29.0 mm
01:25 AM 66.6°F19.2°C 64.8°F18.2°C 94% 5.8 mph SW9.3 kmh SW 11.5 mph18.5 kmh 29.61 in1002.7 mb - 1.14 in29.0 mm 1.14 in29.0 mm
01:20 AM 67.1°F19.5°C 65.6°F18.7°C 95% 11.5 mph SW18.5 kmh SW 24.2 mph38.9 kmh 29.60 in1002.4 mb - 1.13 in28.7 mm 1.13 in28.7 mm
01:15 AM 66.7°F19.3°C 65.2°F18.4°C 95% 12.7 mph SW20.4 kmh SW 20.7 mph33.3 kmh 29.58 in1001.7 mb - 1.11 in28.2 mm 1.11 in28.2 mm
01:10 AM 65.6°F18.7°C 64.2°F17.9°C 95% 16.1 mph SW25.9 kmh SW 26.5 mph42.6 kmh 29.58 in1001.7 mb - 1.04 in26.4 mm 1.04 in26.4 mm
01:00 AM 64.1°F17.8°C 62.0°F16.7°C 93% 8.1 mph SW13.0 kmh SW 17.3 mph27.8 kmh 29.58 in1001.7 mb - 0.79 in20.1 mm 0.79 in20.1 mm
12:55 AM 63.9°F17.7°C 61.5°F16.4°C 92% 8.1 mph SW13.0 kmh SW 11.5 mph18.5 kmh 29.58 in1001.7 mb - 0.69 in17.5 mm 0.69 in17.5 mm
12:50 AM 64.3°F17.9°C 61.9°F16.6°C 92% 6.9 mph SW11.1 kmh SW 8.1 mph13.0 kmh 29.59 in1002.0 mb - 0.56 in14.2 mm 0.56 in14.2 mm
12:45 AM 64.5°F18.1°C 61.8°F16.6°C 91% 6.9 mph SW11.1 kmh SW 11.5 mph18.5 kmh 29.59 in1002.0 mb - 0.48 in12.2 mm 0.48 in12.2 mm
12:40 AM 65.1°F18.4°C 61.8°F16.6°C 89% 4.6 mph SSW7.4 kmh SSW 5.8 mph9.3 kmh 29.59 in1002.0 mb - 0.45 in11.4 mm 0.45 in11.4 mm
12:35 AM 66.5°F19.2°C 62.5°F16.9°C 87% 9.2 mph SW14.8 kmh SW 12.7 mph20.4 kmh 29.63 in1003.4 mb - 0.32 in8.1 mm 0.32 in8.1 mm
12:30 AM 68.7°F20.4°C 63.7°F17.6°C 84% 9.2 mph WSW14.8 kmh WSW 21.9 mph35.2 kmh 29.64 in1003.7 mb - 0.10 in2.5 mm 0.10 in2.5 mm
12:25 AM 71.5°F21.9°C 66.7°F19.3°C 85% 15.0 mph SW24.1 kmh SW 26.5 mph42.6 kmh 29.62 in1003.0 mb - 0.01 in0.3 mm 0.01 in0.3 mm
12:20 AM 73.1°F22.8°C 70.6°F21.4°C 92% 15.0 mph SW24.1 kmh SW 28.8 mph46.3 kmh 29.55 in1000.7 mb - 0.00 in0.0 mm 0.00 in0.0 mm
12:15 AM 72.2°F22.3°C 69.7°F20.9°C 92% 4.6 mph SE7.4 kmh SE 6.9 mph11.1 kmh 29.49 in998.6 mb - 0.00 in0.0 mm 0.00 in0.0 mm
12:10 AM 71.7°F22.1°C 69.2°F20.7°C 92% 5.8 mph SE9.3 kmh SE 11.5 mph18.5 kmh 29.51 in999.3 mb - 0.00 in0.0 mm 0.00 in0.0 mm
12:00 AM 70.2°F21.2°C 67.8°F19.9°C 92% 5.8 mph SE9.3 kmh SE 10.4 mph16.7 kmh 29.52 in999.7 mb - 0.00 in0.0 mm 0.00 in0.0 mm